createdAt,value
2022-09-27T00:01:44.020Z,12.39
2022-09-27T00:06:45.806Z,12.33
2022-09-27T00:11:46.900Z,12.29
2022-09-27T00:16:48.159Z,12.25
2022-09-27T00:21:49.438Z,12.20
2022-09-27T00:26:50.833Z,12.20
2022-09-27T00:31:52.601Z,12.21
2022-09-27T00:36:54.777Z,12.22
2022-09-27T00:41:56.377Z,12.23
2022-09-27T00:47:35.279Z,12.24
2022-09-27T00:52:49.454Z,12.22
2022-09-27T00:57:51.756Z,12.20
2022-09-27T01:02:55.454Z,12.17
2022-09-27T01:07:59.875Z,12.17
2022-09-27T01:13:18.709Z,12.18
2022-09-27T01:18:44.990Z,12.17
2022-09-27T01:23:55.161Z,12.17
2022-09-27T01:29:07.090Z,12.12
2022-09-27T01:34:30.094Z,12.11
2022-09-27T01:39:34.100Z,12.11
2022-09-27T01:44:53.961Z,12.09
2022-09-27T01:50:06.684Z,12.09
2022-09-27T01:55:13.368Z,12.08
2022-09-27T02:00:14.479Z,12.07
2022-09-27T02:05:17.272Z,12.05
2022-09-27T02:10:27.732Z,12.03
2022-09-27T02:15:40.939Z,12.01
2022-09-27T02:20:51.482Z,11.98
2022-09-27T02:26:00.650Z,11.96
2022-09-27T02:31:01.828Z,11.93
2022-09-27T02:36:03.618Z,11.90
2022-09-27T02:41:16.500Z,11.88
2022-09-27T02:46:45.232Z,11.85
2022-09-27T02:52:11.053Z,11.86
2022-09-27T02:57:29.831Z,11.84
2022-09-27T03:02:55.951Z,11.82
2022-09-27T03:07:57.634Z,11.79
2022-09-27T03:12:59.205Z,11.80
2022-09-27T03:18:00.831Z,11.81
2022-09-27T03:23:02.419Z,11.80
2022-09-27T03:28:03.653Z,11.76
2022-09-27T03:33:05.058Z,11.75
2022-09-27T03:38:06.572Z,11.73
2022-09-27T03:43:07.699Z,11.71
2022-09-27T03:48:08.679Z,11.70
2022-09-27T03:53:09.785Z,11.67
2022-09-27T03:58:10.870Z,11.63
2022-09-27T04:03:14.022Z,11.61
2022-09-27T04:08:15.236Z,11.53
2022-09-27T04:13:16.346Z,11.41
2022-09-27T04:18:17.355Z,11.32
2022-09-27T04:23:19.902Z,11.22
2022-09-27T04:28:22.359Z,11.14
2022-09-27T04:33:23.450Z,11.06
2022-09-27T04:38:24.475Z,11.00
2022-09-27T04:43:25.540Z,10.94
2022-09-27T04:48:26.597Z,10.93
2022-09-27T04:53:31.575Z,10.96
2022-09-27T04:58:35.692Z,11.01
2022-09-27T05:03:37.216Z,11.08
2022-09-27T05:08:38.538Z,11.15
2022-09-27T05:13:39.622Z,11.22
2022-09-27T05:18:41.481Z,11.29
2022-09-27T05:23:44.808Z,11.35
2022-09-27T05:28:48.614Z,11.43
2022-09-27T05:33:50.049Z,11.51
2022-09-27T05:38:51.077Z,11.63
2022-09-27T05:43:52.178Z,11.81
2022-09-27T05:48:53.194Z,12.01
2022-09-27T05:53:54.375Z,12.09
2022-09-27T05:58:56.669Z,12.17
2022-09-27T06:03:57.949Z,12.21
2022-09-27T06:14:01.587Z,12.32
2022-09-27T06:19:03.489Z,12.37
2022-09-27T06:24:05.132Z,12.46
2022-09-27T06:29:07.189Z,12.53
2022-09-27T06:34:09.375Z,12.62
2022-09-27T06:39:10.439Z,12.63
2022-09-27T06:44:13.721Z,12.71
2022-09-27T06:49:14.966Z,12.80
2022-09-27T06:54:16.171Z,12.89
2022-09-27T06:59:36.173Z,12.95
2022-09-27T07:04:37.283Z,12.95
2022-09-27T07:09:39.530Z,13.03
2022-09-27T07:14:40.781Z,13.18
2022-09-27T07:19:49.126Z,13.39
2022-09-27T07:24:51.561Z,13.65
2022-09-27T07:29:54.337Z,13.94
2022-09-27T07:34:58.459Z,14.18
2022-09-27T07:40:08.842Z,14.32
2022-09-27T07:45:11.313Z,14.38
2022-09-27T07:50:12.422Z,14.49
2022-09-27T07:55:14.352Z,14.62
2022-09-27T08:00:19.096Z,14.65
2022-09-27T08:05:20.226Z,14.60
2022-09-27T08:10:21.356Z,14.56
2022-09-27T08:15:22.470Z,14.52
2022-09-27T08:20:23.728Z,14.46
2022-09-27T08:25:24.922Z,14.34
2022-09-27T08:30:27.812Z,14.22
2022-09-27T08:35:32.566Z,14.21
2022-09-27T08:40:53.799Z,14.41
2022-09-27T08:46:18.919Z,14.74
2022-09-27T08:51:25.060Z,14.91
2022-09-27T08:56:26.170Z,15.28
2022-09-27T09:01:29.164Z,15.58
2022-09-27T09:06:33.986Z,16.07
2022-09-27T09:11:59.793Z,16.78
2022-09-27T09:17:10.727Z,17.39
2022-09-27T09:22:28.075Z,17.74
2022-09-27T09:27:42.560Z,17.87
2022-09-27T09:33:16.028Z,18.23
2022-09-27T09:38:23.393Z,18.74
2022-09-27T09:43:41.171Z,18.95
2022-09-27T09:48:53.448Z,18.77
2022-09-27T09:54:03.325Z,18.32
2022-09-27T09:59:30.574Z,17.95
2022-09-27T10:04:33.286Z,17.75
2022-09-27T10:09:35.689Z,17.60
2022-09-27T10:14:37.031Z,17.65
2022-09-27T10:19:39.071Z,17.76
2022-09-27T10:25:06.526Z,17.79
2022-09-27T10:30:39.533Z,17.84
2022-09-27T10:35:46.222Z,17.87
2022-09-27T10:40:53.154Z,17.96
2022-09-27T10:46:03.484Z,18.13
2022-09-27T10:51:07.706Z,18.16
2022-09-27T10:56:26.988Z,18.10
2022-09-27T11:01:42.098Z,18.09
2022-09-27T11:06:43.510Z,18.27
2022-09-27T11:11:44.824Z,18.23
2022-09-27T11:16:59.598Z,18.06
2022-09-27T11:22:30.334Z,17.79
2022-09-27T11:27:49.900Z,17.75
2022-09-27T11:33:24.445Z,18.09
2022-09-27T11:38:51.790Z,18.50
2022-09-27T11:44:21.573Z,18.83
2022-09-27T11:49:31.586Z,19.03
2022-09-27T11:54:41.685Z,19.03
2022-09-27T12:00:07.075Z,18.98
2022-09-27T12:05:51.827Z,18.67
2022-09-27T12:11:25.203Z,18.12
2022-09-27T12:16:29.636Z,17.80
2022-09-27T12:21:32.505Z,17.69
2022-09-27T12:26:38.072Z,17.82
2022-09-27T12:32:05.279Z,18.11
2022-09-27T12:37:18.923Z,18.32
2022-09-27T12:42:25.089Z,18.30
2022-09-27T12:47:46.922Z,18.25
2022-09-27T12:52:52.304Z,18.08
2022-09-27T12:58:31.285Z,17.91
2022-09-27T13:03:42.839Z,17.87
2022-09-27T13:09:06.918Z,17.77
2022-09-27T13:14:38.773Z,17.94
2022-09-27T13:19:43.595Z,18.09
2022-09-27T13:24:46.595Z,17.97
2022-09-27T13:29:47.876Z,17.80
2022-09-27T13:34:55.787Z,17.67
2022-09-27T13:40:29.383Z,17.55
2022-09-27T13:45:56.760Z,17.60
2022-09-27T13:51:03.722Z,17.50
2022-09-27T13:56:06.505Z,17.40
2022-09-27T14:01:29.927Z,17.37
2022-09-27T14:06:41.405Z,17.45
2022-09-27T14:11:47.839Z,17.44
2022-09-27T14:16:49.239Z,17.37
2022-09-27T14:21:51.730Z,17.25
2022-09-27T14:27:30.549Z,17.06
2022-09-27T14:32:33.862Z,16.92
2022-09-27T14:37:35.583Z,16.88
2022-09-27T14:42:38.338Z,16.88
2022-09-27T14:47:45.784Z,16.89
2022-09-27T14:52:49.583Z,16.79
2022-09-27T14:57:58.458Z,16.58
2022-09-27T15:03:03.697Z,16.33
2022-09-27T15:08:07.463Z,16.16
2022-09-27T15:13:14.844Z,16.32
2022-09-27T15:18:38.967Z,16.93
2022-09-27T15:23:44.969Z,16.81
2022-09-27T15:28:51.437Z,16.52
2022-09-27T15:33:55.375Z,16.33
2022-09-27T15:39:11.219Z,16.16
2022-09-27T15:44:52.933Z,15.92
2022-09-27T15:49:54.126Z,15.74
2022-09-27T15:55:25.371Z,15.54
2022-09-27T16:00:28.745Z,15.24
2022-09-27T16:05:32.376Z,15.02
2022-09-27T16:10:44.737Z,14.86
2022-09-27T16:15:47.307Z,14.69
2022-09-27T16:20:49.148Z,14.55
2022-09-27T16:25:52.795Z,14.42
2022-09-27T16:31:01.167Z,14.27
2022-09-27T16:36:13.600Z,14.10
2022-09-27T16:41:15.225Z,13.97
2022-09-27T16:46:18.731Z,13.85
2022-09-27T16:51:39.670Z,13.76
2022-09-27T16:56:41.192Z,13.64
2022-09-27T17:01:44.756Z,13.56
2022-09-27T17:06:45.971Z,13.47
2022-09-27T17:11:47.631Z,13.40
2022-09-27T17:16:50.355Z,13.32
2022-09-27T17:21:51.449Z,13.24
2022-09-27T17:26:52.788Z,13.17
2022-09-27T17:31:53.952Z,13.09
2022-09-27T17:36:55.187Z,13.02
2022-09-27T17:41:57.724Z,12.93
2022-09-27T17:47:17.612Z,12.86
2022-09-27T17:52:18.671Z,12.79
2022-09-27T17:57:19.692Z,12.74
2022-09-27T18:02:21.037Z,12.69
2022-09-27T18:07:22.300Z,12.64
2022-09-27T18:12:31.001Z,12.58
2022-09-27T18:17:32.281Z,12.56
2022-09-27T18:22:34.396Z,12.57
2022-09-27T18:27:35.782Z,12.60
2022-09-27T18:32:37.045Z,12.60
2022-09-27T18:37:38.213Z,12.58
2022-09-27T18:42:44.294Z,12.54
2022-09-27T18:47:45.409Z,12.50
2022-09-27T18:52:46.461Z,12.43
2022-09-27T18:57:47.614Z,12.40
2022-09-27T19:02:49.239Z,12.34
2022-09-27T19:07:50.304Z,12.29
2022-09-27T19:12:55.917Z,12.23
2022-09-27T19:17:57.045Z,12.19
2022-09-27T19:22:58.594Z,12.17
2022-09-27T19:27:59.777Z,12.16
2022-09-27T19:33:03.199Z,12.16
2022-09-27T19:38:04.259Z,12.17
2022-09-27T19:43:06.261Z,12.18
2022-09-27T19:48:07.391Z,12.20
2022-09-27T19:53:08.551Z,12.22
2022-09-27T19:58:09.563Z,12.22
2022-09-27T20:03:10.723Z,12.21
2022-09-27T20:08:12.180Z,12.22
2022-09-27T20:13:16.143Z,12.26
2022-09-27T20:18:19.765Z,12.31
2022-09-27T20:23:24.244Z,12.36
2022-09-27T20:28:26.193Z,12.41
2022-09-27T20:33:46.925Z,12.45
2022-09-27T20:38:49.589Z,12.46
2022-09-27T20:43:53.853Z,12.43
2022-09-27T20:49:02.073Z,12.38
2022-09-27T20:54:04.682Z,12.39
2022-09-27T20:59:14.859Z,12.42
2022-09-27T21:04:18.359Z,12.45
2022-09-27T21:09:19.852Z,12.49
2022-09-27T21:14:21.170Z,12.50
2022-09-27T21:19:22.418Z,12.49
2022-09-27T21:24:23.442Z,12.46
2022-09-27T21:29:24.498Z,12.41
2022-09-27T21:34:26.117Z,12.38
2022-09-27T21:39:27.086Z,12.34
2022-09-27T21:44:28.112Z,12.31
2022-09-27T21:49:30.024Z,12.28
2022-09-27T21:54:31.119Z,12.27
2022-09-27T21:59:32.063Z,12.29
2022-09-27T22:04:33.115Z,12.30
2022-09-27T22:09:34.144Z,12.33
2022-09-27T22:14:35.234Z,12.37
2022-09-27T22:19:36.325Z,12.41
2022-09-27T22:24:37.411Z,12.44
2022-09-27T22:29:38.561Z,12.44
2022-09-27T22:34:39.627Z,12.43
2022-09-27T22:39:40.579Z,12.42
2022-09-27T22:44:41.774Z,12.43
2022-09-27T22:49:42.830Z,12.43
2022-09-27T22:54:44.155Z,12.45
2022-09-27T22:59:45.343Z,12.47
2022-09-27T23:04:47.915Z,12.48
2022-09-27T23:09:49.089Z,12.49
2022-09-27T23:14:50.322Z,12.51
2022-09-27T23:19:51.408Z,12.48
2022-09-27T23:24:52.436Z,12.43
2022-09-27T23:29:53.575Z,12.41
2022-09-27T23:34:54.907Z,12.42
2022-09-27T23:39:56.715Z,12.43
2022-09-27T23:44:57.986Z,12.45
2022-09-27T23:49:59.053Z,12.46
2022-09-27T23:55:00.655Z,12.44
